Ribeirãozinho Airport

BR-0120 · 马托格罗索州, 巴西

METAR BR-0120 · Ribeirãozinho Airport

28 二月 09:00 LT
32m
使用的METAR站距离机场78 km。
罗盘
风向 的
风: 0 kt, 0 beaufort

添加一条跑道以查看侧风和逆风信息。

添置 跑道
0 ft 1.000 2.000 3.000 4.000 5.000
CAVOK
METAR SBBW 281200Z 00000KT CAVOK 29/23 Q1015

METAR Ribeirãozinho Airport - BR-0120

Ribeirãozinho Airport是,巴西中的小机场。 该机场位于纬度-16,49266和经度-52,70079。 这个机场没有ICAO代码,我们使用BR-0120作为参考。 机场在Brasilia FIR中。

该航空气象观测是针对Barra do Garças Airport在2024年2月28日 08:00, 当地时间进行的。

机场观察

可变方向的风很小或没有风。

天气为CAVOK。这意味着在5.000 ft或MSA(最低安全高度)以下(以较高者为准)以下没有云。这也意味着没有观测到积雨云或高耸的积云,可见度为10 km 或者更多或更高。此外,不会有雾,降雨或其他重要天气。

温度和风寒是29 °C。 热指数为32。 露点为23 °C,相对湿度为70%。 海平面上的气压为1015 hPa (QNH)。

白天

今天,太阳从06:30升起,在18:56降落。 这适用于Ribeirãozinho Airport,世界夏令时可能有所不同。 当地时间与世界标准时间之间的时差为-3 小时。 当前,没有夏令时有效。

公司介绍

我们没有关于这个机场的公司信息。

体会

到Vliegles.nl去找飞行课程,跳伞和其他飞行体验。 浏览页面,了解Ribeirãozinho Airport附近所有可用的活动。 你也可以使用搜索功能来寻找你所在地附近的特定飞行课程、跳伞或其他飞行体验。

温度 & 天气

温度 29 °C
露点 23 °C
相对湿度 70%
热度指数 32 °C
Kp-index 0 (0-9)

白天

日出
06:29
中午
12:42
日落
18:54 (9:22)

小工具

你想在你的网站上有一个关于Ribeirãozinho Airport的当前航空天气(METAR)的小部件吗?

显示HTML代码
?>